createdAt,value
2022-08-21T02:02:57.178Z,63.26
2022-08-21T02:05:29.807Z,63.22
2022-08-21T02:08:01.930Z,63.24
2022-08-21T02:10:35.444Z,63.35
2022-08-21T02:13:08.399Z,63.38
2022-08-21T02:15:46.029Z,63.43
2022-08-21T02:18:18.324Z,63.51
2022-08-21T02:20:55.855Z,63.56
2022-08-21T02:23:28.550Z,63.39
2022-08-21T02:26:01.474Z,63.66
2022-08-21T02:28:33.726Z,63.74
2022-08-21T02:31:06.853Z,63.70
2022-08-21T02:33:40.079Z,63.93
2022-08-21T02:36:14.976Z,63.89
2022-08-21T02:38:47.150Z,63.84
2022-08-21T02:41:22.348Z,63.98
2022-08-21T02:43:54.408Z,64.15
2022-08-21T02:46:26.587Z,64.30
2022-08-21T02:48:59.032Z,64.41
2022-08-21T02:51:32.054Z,64.43
2022-08-21T02:54:04.401Z,64.43
2022-08-21T02:56:37.627Z,64.66
2022-08-21T02:59:09.729Z,64.69
2022-08-21T03:01:41.819Z,64.86
2022-08-21T03:04:13.989Z,64.94
2022-08-21T03:06:46.397Z,64.90
2022-08-21T03:09:18.572Z,65.16
2022-08-21T03:11:50.818Z,65.08
2022-08-21T03:14:22.924Z,65.16
2022-08-21T03:16:55.039Z,65.24
2022-08-21T03:19:27.455Z,65.41
2022-08-21T03:21:59.520Z,65.44
2022-08-21T03:24:31.564Z,65.54
2022-08-21T03:27:04.643Z,65.63
2022-08-21T03:29:42.069Z,65.76
2022-08-21T03:32:14.355Z,65.85
2022-08-21T03:34:46.518Z,65.98
2022-08-21T03:37:18.838Z,65.93
2022-08-21T03:39:51.031Z,66.08
2022-08-21T03:42:23.356Z,66.07
2022-08-21T03:44:55.893Z,66.14
2022-08-21T03:47:28.302Z,66.35
2022-08-21T03:50:00.517Z,66.19
2022-08-21T03:52:32.731Z,66.36
2022-08-21T03:55:05.000Z,66.41
2022-08-21T03:57:37.064Z,66.34
2022-08-21T04:00:12.923Z,66.37
2022-08-21T04:02:45.529Z,66.28
2022-08-21T04:05:28.224Z,66.38
2022-08-21T04:08:02.484Z,66.34
2022-08-21T04:10:39.028Z,66.26
2022-08-21T04:13:11.616Z,66.35
2022-08-21T04:15:44.491Z,66.24
2022-08-21T04:18:17.265Z,66.12
2022-08-21T04:20:51.621Z,65.95
2022-08-21T04:23:25.451Z,65.92
2022-08-21T04:25:58.669Z,65.92
2022-08-21T04:28:31.369Z,65.64
2022-08-21T04:31:03.859Z,65.53
2022-08-21T04:33:36.019Z,65.61
2022-08-21T04:36:09.132Z,65.23
2022-08-21T04:38:44.681Z,64.97
2022-08-21T04:41:17.168Z,64.75
2022-08-21T04:43:57.681Z,64.30
2022-08-21T04:46:29.888Z,63.70
2022-08-21T04:49:02.750Z,62.95
2022-08-21T04:51:39.503Z,62.35
2022-08-21T04:54:15.656Z,61.33
2022-08-21T04:56:51.994Z,60.37
2022-08-21T04:59:26.667Z,59.44
2022-08-21T05:01:59.187Z,58.57
2022-08-21T05:04:34.082Z,57.77
2022-08-21T05:07:09.796Z,56.52
2022-08-21T05:09:42.665Z,56.19
2022-08-21T05:12:15.398Z,55.38
2022-08-21T05:14:48.143Z,54.12
2022-08-21T05:17:20.327Z,53.36
2022-08-21T05:19:53.357Z,52.51
2022-08-21T05:22:26.590Z,52.43
2022-08-21T05:25:00.834Z,52.50
2022-08-21T05:27:33.133Z,52.69
2022-08-21T05:30:08.559Z,52.78
2022-08-21T05:32:41.012Z,52.86
2022-08-21T05:35:13.219Z,52.74
2022-08-21T05:37:45.292Z,52.36
2022-08-21T05:40:21.627Z,51.90
2022-08-21T05:42:57.653Z,51.19
2022-08-21T05:45:42.850Z,50.69
2022-08-21T05:48:19.883Z,50.10
2022-08-21T05:50:53.440Z,49.31
2022-08-21T05:53:27.007Z,49.74
2022-08-21T05:55:59.231Z,49.49
2022-08-21T05:58:32.260Z,49.20
2022-08-21T06:01:06.007Z,48.76
2022-08-21T06:03:41.786Z,48.65
2022-08-21T06:06:14.004Z,48.29
2022-08-21T06:08:46.670Z,47.80
2022-08-21T06:11:20.767Z,47.29
2022-08-21T06:13:53.236Z,46.74
2022-08-21T06:16:25.908Z,46.41
2022-08-21T06:19:02.144Z,45.87
2022-08-21T06:21:35.031Z,45.22
2022-08-21T06:24:09.349Z,44.62
2022-08-21T06:26:41.472Z,44.72
2022-08-21T06:29:17.497Z,43.79
2022-08-21T06:31:50.684Z,43.26
2022-08-21T06:34:22.891Z,42.59
2022-08-21T06:36:55.271Z,41.51
2022-08-21T06:39:32.352Z,40.67
2022-08-21T06:42:05.217Z,39.14
2022-08-21T06:44:42.715Z,38.64
2022-08-21T06:47:15.700Z,37.95
2022-08-21T06:49:48.075Z,37.13
2022-08-21T06:52:21.712Z,36.34
2022-08-21T06:54:53.806Z,35.51
2022-08-21T06:57:26.763Z,34.93
2022-08-21T06:59:59.180Z,34.92
2022-08-21T07:02:31.427Z,34.57
2022-08-21T07:05:09.001Z,34.03
2022-08-21T07:07:50.552Z,33.47
2022-08-21T07:10:23.094Z,32.85
2022-08-21T07:13:00.880Z,32.25
2022-08-21T07:15:33.975Z,31.95
2022-08-21T07:18:06.632Z,31.60
2022-08-21T07:20:39.284Z,31.49
2022-08-21T07:23:14.099Z,30.91
2022-08-21T07:25:46.187Z,30.72
2022-08-21T07:28:18.296Z,30.51
2022-08-21T07:30:55.422Z,30.03
2022-08-21T07:33:29.227Z,29.29
2022-08-21T07:36:03.124Z,28.78
2022-08-21T07:38:35.519Z,28.88
2022-08-21T07:41:15.612Z,29.03
2022-08-21T07:43:48.396Z,28.73
2022-08-21T07:46:20.621Z,28.06
2022-08-21T07:48:53.632Z,27.68
2022-08-21T07:51:31.194Z,27.79
2022-08-21T07:54:03.986Z,28.02
2022-08-21T07:56:37.070Z,27.84
2022-08-21T07:59:09.413Z,27.45
2022-08-21T08:01:41.749Z,27.27
2022-08-21T08:04:14.065Z,28.04
2022-08-21T08:06:47.136Z,27.53
2022-08-21T08:09:19.491Z,27.52
2022-08-21T08:11:51.661Z,26.70
2022-08-21T08:14:26.490Z,26.57
2022-08-21T08:17:03.650Z,26.35
2022-08-21T08:19:35.746Z,26.17
2022-08-21T08:22:16.851Z,26.47
2022-08-21T08:24:49.630Z,25.17
2022-08-21T08:27:22.399Z,25.44
2022-08-21T08:29:54.551Z,25.16
2022-08-21T08:32:27.180Z,25.12
2022-08-21T08:34:59.330Z,24.69
2022-08-21T08:37:34.556Z,24.86
2022-08-21T08:40:08.492Z,24.90
2022-08-21T08:42:41.555Z,25.70
2022-08-21T08:45:15.855Z,25.51
2022-08-21T08:47:51.948Z,25.00
2022-08-21T08:50:29.806Z,26.13
2022-08-21T08:53:06.389Z,26.55
2022-08-21T08:55:40.414Z,25.67
2022-08-21T08:58:14.159Z,25.23
2022-08-21T09:00:48.715Z,24.80
2022-08-21T09:03:22.780Z,25.02
2022-08-21T09:06:02.533Z,25.43
2022-08-21T09:08:51.090Z,25.44
2022-08-21T09:11:34.673Z,25.81
2022-08-21T09:14:16.869Z,26.09
2022-08-21T09:16:56.216Z,25.92
2022-08-21T09:19:53.158Z,26.33
2022-08-21T09:22:33.166Z,27.03
2022-08-21T09:25:14.455Z,26.88
2022-08-21T09:27:46.572Z,26.42
2022-08-21T09:30:19.503Z,26.83
2022-08-21T09:32:51.683Z,26.23
2022-08-21T09:35:26.243Z,25.75
2022-08-21T09:38:02.132Z,26.03
2022-08-21T09:40:40.041Z,27.16
2022-08-21T09:43:27.155Z,28.29
2022-08-21T09:46:12.883Z,28.93
2022-08-21T09:48:51.274Z,29.30
2022-08-21T09:51:27.136Z,29.42
2022-08-21T09:54:12.537Z,29.73
2022-08-21T09:57:15.384Z,30.37
2022-08-21T09:59:49.648Z,30.04
2022-08-21T10:02:32.348Z,30.02
2022-08-21T10:05:12.101Z,30.48
2022-08-21T10:07:44.223Z,30.55
2022-08-21T10:10:21.895Z,30.77
2022-08-21T10:13:13.432Z,31.06
2022-08-21T10:15:55.583Z,31.78
2022-08-21T10:18:32.381Z,32.15
2022-08-21T10:21:12.115Z,32.81
2022-08-21T10:24:04.140Z,33.30
2022-08-21T10:26:47.133Z,33.90
2022-08-21T10:29:41.646Z,34.45
2022-08-21T10:32:28.435Z,34.61
2022-08-21T10:35:08.631Z,34.73
2022-08-21T10:37:54.953Z,35.55
2022-08-21T10:40:32.454Z,35.51
2022-08-21T10:43:18.955Z,34.98
2022-08-21T10:46:00.066Z,35.76
2022-08-21T10:48:38.770Z,35.40
2022-08-21T10:51:18.699Z,35.06
2022-08-21T10:54:07.509Z,35.06
2022-08-21T10:56:43.998Z,35.37
2022-08-21T10:59:33.291Z,35.61
2022-08-21T11:02:23.612Z,35.83
2022-08-21T11:04:59.459Z,35.96
2022-08-21T11:07:37.344Z,36.07
2022-08-21T11:10:17.048Z,35.94
2022-08-21T11:12:54.258Z,36.03
2022-08-21T11:15:37.551Z,36.86
2022-08-21T11:18:23.981Z,37.33
2022-08-21T11:21:05.176Z,37.03
2022-08-21T11:23:46.003Z,36.61
2022-08-21T11:26:25.413Z,35.97
2022-08-21T11:29:06.481Z,35.61
2022-08-21T11:31:50.425Z,36.19
2022-08-21T11:34:38.967Z,36.02
2022-08-21T11:37:21.680Z,35.77
2022-08-21T11:40:04.304Z,36.04
2022-08-21T11:42:46.408Z,36.46
2022-08-21T11:45:28.238Z,36.42
2022-08-21T11:48:09.465Z,35.48
2022-08-21T11:50:45.919Z,35.33
2022-08-21T11:53:19.605Z,34.76
2022-08-21T11:56:04.364Z,35.29
2022-08-21T11:58:40.786Z,35.76
2022-08-21T12:01:18.213Z,35.35
2022-08-21T12:03:57.691Z,35.77
2022-08-21T12:06:36.754Z,35.80
2022-08-21T12:09:11.763Z,36.10
2022-08-21T12:12:01.890Z,35.74
2022-08-21T12:14:43.694Z,35.30
2022-08-21T12:17:23.803Z,35.52
2022-08-21T12:20:03.932Z,34.70
2022-08-21T12:22:51.906Z,34.83
2022-08-21T12:25:25.404Z,35.04
2022-08-21T12:28:09.669Z,34.39
2022-08-21T12:30:44.468Z,34.26
2022-08-21T12:33:31.107Z,33.85
2022-08-21T12:36:12.562Z,34.28
2022-08-21T12:38:52.581Z,33.91
2022-08-21T12:41:31.062Z,34.49
2022-08-21T12:44:07.347Z,34.49
2022-08-21T12:46:39.569Z,34.21
2022-08-21T12:49:21.267Z,34.79
2022-08-21T12:51:58.860Z,35.07
2022-08-21T12:54:34.325Z,34.74
2022-08-21T12:57:08.906Z,34.92
2022-08-21T12:59:43.348Z,34.81
2022-08-21T13:02:20.946Z,34.67
2022-08-21T13:04:56.289Z,34.99
2022-08-21T13:07:34.462Z,35.31
2022-08-21T13:10:11.657Z,35.23
2022-08-21T13:12:46.188Z,35.68
2022-08-21T13:15:25.411Z,35.45
2022-08-21T13:18:07.803Z,35.81
2022-08-21T13:20:43.426Z,35.82
2022-08-21T13:23:26.558Z,35.67
2022-08-21T13:25:59.977Z,35.84
2022-08-21T13:28:38.883Z,36.17
2022-08-21T13:31:12.939Z,36.46
2022-08-21T13:33:46.646Z,36.90
2022-08-21T13:36:22.904Z,37.54
2022-08-21T13:38:56.027Z,37.85
2022-08-21T13:41:31.923Z,37.64
2022-08-21T13:44:06.744Z,37.87
2022-08-21T13:46:40.377Z,38.25
2022-08-21T13:49:15.412Z,38.33
2022-08-21T13:51:51.187Z,38.62
2022-08-21T13:54:29.642Z,38.85
2022-08-21T13:57:02.260Z,38.94
2022-08-21T13:59:36.780Z,39.18
2022-08-21T14:02:16.515Z,39.31
2022-08-21T14:04:56.911Z,39.38
2022-08-21T14:07:37.147Z,39.17
2022-08-21T14:10:17.478Z,39.15
2022-08-21T14:12:53.368Z,39.31
2022-08-21T14:15:30.353Z,39.27
2022-08-21T14:18:17.768Z,39.52
2022-08-21T14:20:50.309Z,39.21
2022-08-21T14:23:29.390Z,39.40
2022-08-21T14:26:06.225Z,39.47
2022-08-21T14:28:48.447Z,39.73
2022-08-21T14:31:23.561Z,39.93
2022-08-21T14:34:32.891Z,39.88
2022-08-21T14:37:12.002Z,39.83
2022-08-21T14:39:45.962Z,40.06
2022-08-21T14:42:18.144Z,40.61
2022-08-21T14:44:50.369Z,40.72
2022-08-21T14:47:23.070Z,40.74
2022-08-21T14:49:55.717Z,40.52
2022-08-21T14:52:29.889Z,40.80
2022-08-21T14:55:04.842Z,40.87
2022-08-21T14:57:39.538Z,41.20
2022-08-21T15:00:14.895Z,40.92
2022-08-21T15:02:47.404Z,40.58
2022-08-21T15:05:33.026Z,40.78
2022-08-21T15:08:06.286Z,40.74
2022-08-21T15:10:57.040Z,41.11
2022-08-21T15:13:32.883Z,40.85
2022-08-21T15:16:05.272Z,40.58
2022-08-21T15:18:37.730Z,40.32
2022-08-21T15:21:10.522Z,40.19
2022-08-21T15:23:43.930Z,40.32
2022-08-21T15:26:16.503Z,40.35
2022-08-21T15:28:49.257Z,40.25
2022-08-21T15:31:21.355Z,40.55
2022-08-21T15:33:53.670Z,40.63
2022-08-21T15:36:26.012Z,40.83
2022-08-21T15:38:58.232Z,41.04
2022-08-21T15:41:31.319Z,41.23
2022-08-21T15:44:03.930Z,41.21
2022-08-21T15:46:36.101Z,41.22
2022-08-21T15:49:08.839Z,41.34
2022-08-21T15:51:43.635Z,41.59
2022-08-21T15:54:17.837Z,41.35
2022-08-21T15:56:52.932Z,41.91
2022-08-21T15:59:26.319Z,42.01
2022-08-21T16:01:59.399Z,42.20
2022-08-21T16:04:32.038Z,42.40
2022-08-21T16:07:09.538Z,42.47
2022-08-21T16:09:44.753Z,42.51
2022-08-21T16:12:23.944Z,42.38
2022-08-21T16:14:57.093Z,42.63
2022-08-21T16:17:33.482Z,42.79
2022-08-21T16:20:09.665Z,43.34
2022-08-21T16:22:44.630Z,43.68
2022-08-21T16:25:18.490Z,44.05
2022-08-21T16:28:05.089Z,44.46
2022-08-21T16:30:48.277Z,45.06
2022-08-21T16:33:26.487Z,45.31
2022-08-21T16:35:58.583Z,45.72
2022-08-21T16:38:32.769Z,46.07
2022-08-21T16:41:13.148Z,46.40
2022-08-21T16:43:46.486Z,46.63
2022-08-21T16:46:19.261Z,46.98
2022-08-21T16:48:55.555Z,47.14
2022-08-21T16:51:27.571Z,47.23
2022-08-21T16:54:00.189Z,47.27
2022-08-21T16:56:33.264Z,47.65
2022-08-21T16:59:06.082Z,47.85
2022-08-21T17:01:38.431Z,48.04
2022-08-21T17:04:11.058Z,48.07
2022-08-21T17:06:44.181Z,48.33
2022-08-21T17:09:16.772Z,48.64
2022-08-21T17:11:50.795Z,48.68
2022-08-21T17:14:24.949Z,48.94
2022-08-21T17:16:58.283Z,49.05
2022-08-21T17:19:30.375Z,49.22
2022-08-21T17:22:14.160Z,49.63
2022-08-21T17:24:46.423Z,49.83
2022-08-21T17:27:19.534Z,50.15
2022-08-21T17:29:56.249Z,50.21
2022-08-21T17:32:28.539Z,50.61
2022-08-21T17:35:00.657Z,50.74
2022-08-21T17:37:32.769Z,51.20
2022-08-21T17:40:06.832Z,51.24
2022-08-21T17:42:39.202Z,51.22
2022-08-21T17:45:14.318Z,51.61
2022-08-21T17:47:47.525Z,51.67
2022-08-21T17:50:22.579Z,51.80
2022-08-21T17:52:55.402Z,51.81
2022-08-21T17:55:28.328Z,51.92
2022-08-21T17:58:02.354Z,52.01
2022-08-21T18:00:35.540Z,51.95
2022-08-21T18:03:14.785Z,52.11
2022-08-21T18:05:48.862Z,52.24
2022-08-21T18:08:21.574Z,52.42
2022-08-21T18:10:54.164Z,52.26
2022-08-21T18:13:35.335Z,52.51
2022-08-21T18:16:08.927Z,52.48
2022-08-21T18:18:44.945Z,52.95
2022-08-21T18:21:17.681Z,53.13
2022-08-21T18:23:50.236Z,53.37
2022-08-21T18:26:29.667Z,53.65
2022-08-21T18:29:03.717Z,53.66
2022-08-21T18:31:39.326Z,53.72
2022-08-21T18:34:20.470Z,54.07
2022-08-21T18:36:53.586Z,54.05
2022-08-21T18:39:36.531Z,53.87
2022-08-21T18:42:13.819Z,53.99
2022-08-21T18:44:45.602Z,54.28
2022-08-21T18:47:22.576Z,54.27
2022-08-21T18:49:54.775Z,54.22
2022-08-21T18:55:21.323Z,54.36
2022-08-21T18:57:53.737Z,54.41
2022-08-21T19:00:28.980Z,54.44
2022-08-21T19:03:02.016Z,54.40
2022-08-21T19:05:39.947Z,54.62
2022-08-21T19:08:13.878Z,54.71
2022-08-21T19:10:48.166Z,54.94
2022-08-21T19:13:23.097Z,54.92
2022-08-21T19:15:56.745Z,54.88
2022-08-21T19:18:30.957Z,55.02
2022-08-21T19:21:03.418Z,55.19
2022-08-21T19:23:35.634Z,55.17
2022-08-21T19:26:10.880Z,55.30
2022-08-21T19:28:46.183Z,55.31
2022-08-21T19:31:23.551Z,55.44
2022-08-21T19:34:01.628Z,55.58
2022-08-21T19:36:34.423Z,55.48
2022-08-21T19:39:08.393Z,55.70
2022-08-21T19:41:45.490Z,55.65
2022-08-21T19:44:20.989Z,55.75
2022-08-21T19:46:54.992Z,55.93
2022-08-21T19:49:33.396Z,55.79
2022-08-21T19:52:12.951Z,55.93
2022-08-21T19:54:46.580Z,56.13
2022-08-21T19:57:19.763Z,56.06
2022-08-21T19:59:53.281Z,56.28
2022-08-21T20:02:27.343Z,56.30
2022-08-21T20:04:59.379Z,56.40
2022-08-21T20:07:32.123Z,56.24
2022-08-21T20:10:04.630Z,56.28
2022-08-21T20:12:37.449Z,56.29
2022-08-21T20:15:11.738Z,56.27
2022-08-21T20:17:43.814Z,56.27
2022-08-21T20:20:15.889Z,56.26
2022-08-21T20:22:48.467Z,56.17
2022-08-21T20:25:21.267Z,56.10
2022-08-21T20:27:53.585Z,56.21
2022-08-21T20:30:25.890Z,56.11
2022-08-21T20:32:58.042Z,55.98
2022-08-21T20:35:30.276Z,56.11
2022-08-21T20:38:02.341Z,56.47
2022-08-21T20:40:37.701Z,56.56
2022-08-21T20:43:12.834Z,56.55
2022-08-21T20:45:45.683Z,56.70
2022-08-21T20:48:23.618Z,56.78
2022-08-21T20:51:02.004Z,56.63
2022-08-21T20:53:43.851Z,56.93
2022-08-21T20:56:21.418Z,56.66
2022-08-21T20:59:03.175Z,56.56
2022-08-21T21:01:36.764Z,56.65
2022-08-21T21:04:20.811Z,56.60
2022-08-21T21:06:58.985Z,56.73
2022-08-21T21:09:40.343Z,57.07
2022-08-21T21:12:18.274Z,57.09
2022-08-21T21:15:05.434Z,57.10
2022-08-21T21:17:43.652Z,57.21
2022-08-21T21:20:25.016Z,57.14
2022-08-21T21:23:05.504Z,57.17
2022-08-21T21:25:46.903Z,57.45
2022-08-21T21:28:36.351Z,57.46
2022-08-21T21:31:08.840Z,57.62
2022-08-21T21:33:40.943Z,57.75
2022-08-21T21:36:20.720Z,57.69
2022-08-21T21:39:08.550Z,57.76
2022-08-21T21:41:54.404Z,57.72
2022-08-21T21:44:57.077Z,57.92
2022-08-21T21:47:40.695Z,57.89
2022-08-21T21:50:27.980Z,57.86
2022-08-21T21:56:10.103Z,57.98
2022-08-21T21:59:02.333Z,57.91
2022-08-21T22:01:47.945Z,58.06
2022-08-21T22:04:28.722Z,58.34
2022-08-21T22:07:11.236Z,58.42
2022-08-21T22:09:48.080Z,58.64
2022-08-21T22:12:32.149Z,58.68
2022-08-21T22:15:04.869Z,58.88
2022-08-21T22:17:45.733Z,59.08
2022-08-21T22:20:25.103Z,59.20
2022-08-21T22:22:58.827Z,59.19
2022-08-21T22:25:35.722Z,59.07
2022-08-21T22:28:12.550Z,59.36
2022-08-21T22:30:49.898Z,59.41
2022-08-21T22:33:25.770Z,59.61
2022-08-21T22:36:00.349Z,59.56
2022-08-21T22:38:37.137Z,59.66
2022-08-21T22:41:19.220Z,59.66
2022-08-21T22:43:56.913Z,59.82
2022-08-21T22:46:32.817Z,59.82
2022-08-21T22:49:10.134Z,60.05
2022-08-21T22:51:45.895Z,59.92
2022-08-21T22:54:31.671Z,60.07
2022-08-21T22:57:07.630Z,60.03
2022-08-21T22:59:53.447Z,60.22
2022-08-21T23:02:34.332Z,60.17
2022-08-21T23:05:18.427Z,60.06
2022-08-21T23:07:51.585Z,60.23
2022-08-21T23:10:29.483Z,60.34
2022-08-21T23:19:10.915Z,60.85
2022-08-21T23:21:57.817Z,60.70
2022-08-21T23:24:50.250Z,60.82
2022-08-21T23:27:35.725Z,60.94
2022-08-21T23:30:12.758Z,60.89
2022-08-21T23:33:19.193Z,60.86
2022-08-21T23:36:23.147Z,61.05
2022-08-21T23:39:15.384Z,61.26
2022-08-21T23:41:57.726Z,61.31
2022-08-21T23:44:45.932Z,61.35
2022-08-21T23:47:34.088Z,61.67
2022-08-21T23:53:16.502Z,61.79
2022-08-21T23:56:02.095Z,62.24
2022-08-21T23:58:53.505Z,62.24
